ADDS METAR Data INFO
IDs: Format: Raw Decoded Include TAF

Data at: 1522 UTC 18 Jun 2018

PAIW 181356Z AUTO 05010KT 10SM OVC007 04/04 A2973 RMK AO2 SLP068 T00440039
PAIW 181256Z AUTO 07010KT 10SM OVC007 04/04 A2973 RMK AO2 SLP070 T00440039
PAIW 181156Z AUTO 06011KT 10SM OVC007 04/03 A2973 RMK AO2 SLP070 T00440033 10061 20039 58006
PAIW 181133Z AUTO 06011KT 10SM BKN007 04/04 A2973 RMK AO2
PAIW 181056Z AUTO 07010KT 10SM FEW007 04/03 A2974 RMK AO2 SLP073 T00390033
PAIW 181045Z AUTO 07011KT 10SM SCT007 04/03 A2975 RMK AO2
PAIW 180956Z AUTO 07010KT 10SM BKN007 04/03 A2975 RMK AO2 SLP077 T00390033
PAIW 180856Z AUTO 05010KT 10SM OVC009 05/04 A2975 RMK AO2 SLP076 T00500039 400720033 53002
PAIW 180656Z AUTO 04012KT 10SM OVC009 06/04 A2974 RMK AO2 SLP073 T00560039
PAIW 180633Z AUTO 03010KT 10SM BKN009 06/04 A2975 RMK AO2
PAIW 180556Z AUTO 02013KT 10SM FEW009 06/03 A2974 RMK AO2 SLP074 T00560033 10067 20056 56003
PAIW 180456Z AUTO 01014KT 10SM CLR 06/03 A2974 RMK AO2 SLP074 T00610033
PAIW 180356Z AUTO 02015KT 10SM CLR 06/03 A2975 RMK AO2 SLP075 T00610033
PAIW 180256Z AUTO 02016KT 10SM FEW013 06/03 A2975 RMK AO2 SLP077 T00610033 55000
PAIW 180156Z AUTO 03012KT 10SM SCT013 07/03 A2975 RMK AO2 SLP077 T00670033
PAIW 180056Z AUTO 02014KT 10SM CLR 06/03 A2975 RMK AO2 SLP076 T00610028
PAIW 172356Z AUTO 03013KT 10SM SCT012 07/03 A2975 RMK AO2 SLP077 T00670028 10072 20050 53006
PAIW 172338Z AUTO 04013KT 10SM BKN012 07/03 A2975 RMK AO2
PAIW 172256Z AUTO 03012KT 10SM FEW011 07/04 A2974 RMK AO2 SLP074 T00670039
PAIW 172220Z AUTO 03012KT 10SM SCT011 07/04 A2974 RMK AO2
PAIW 172156Z AUTO 02013KT 10SM OVC009 07/04 A2974 RMK AO2 CIG 008V012 SLP072 T00670039
PAIW 172056Z AUTO 03011KT 10SM OVC009 06/04 A2973 RMK AO2 SLP070 T00610039 53003
PAIW 171956Z AUTO 02016KT 10SM OVC009 06/04 A2972 RMK AO2 SLP066 T00610044
PAIW 171856Z AUTO 02014KT 10SM OVC009 06/04 A2972 RMK AO2 SLP066 T00610039
PAIW 171839Z AUTO 02015KT 10SM BKN009 06/03 A2973 RMK AO2
PAIW 171813Z AUTO 01015KT 10SM FEW009 06/03 A2973 RMK AO2
PAIW 171756Z AUTO 01014KT 10SM CLR 06/03 A2972 RMK AO2 SLP067 T00560033 10056 20033 56006
PAIW 171656Z AUTO 01015KT 10SM FEW008 04/03 A2973 RMK AO2 SLP068 T00440028
PAIW 171647Z AUTO 01014KT 10SM SCT008 04/03 A2973 RMK AO2
PAIW 171625Z AUTO 01016KT 10SM BKN008 OVC016 04/03 A2973 RMK AO2
PAIW 171556Z AUTO 01014KT 10SM BKN010 OVC016 04/03 A2974 RMK AO2 SLP071 T00390028
PAIW 171456Z AUTO 01012KT 10SM BKN010 04/03 A2974 RMK AO2 SLP073 T00390028 56008
PAIW 171356Z AUTO 02012KT 10SM OVC010 03/02 A2975 RMK AO2 SLP076 T00330022
PAIW 171256Z AUTO 03012KT 10SM OVC010 03/02 A2976 RMK AO2 SLP078 T00330022
PAIW 171156Z AUTO 02013KT 10SM OVC010 03/02 A2976 RMK AO2 SLP081 T00330022 10039 20033 58006
PAIW 171056Z AUTO 02014G22KT 10SM OVC010 04/02 A2977 RMK AO2 SLP083 T00390022
PAIW 170956Z AUTO 02017G21KT 10SM OVC010 03/02 A2978 RMK AO2 SLP086 T00330022
PAIW 170856Z AUTO 03019G23KT 10SM OVC010 03/02 A2978 RMK AO2 SLP087 T00330017 400500017 57006
PAIW 170756Z AUTO 02019KT 10SM OVC010 03/02 A2979 RMK AO2 PK WND 02026/0700 SLP090 T00330017
PAIW 170656Z AUTO 03019G25KT 10SM OVC010 04/02 A2979 RMK AO2 PK WND 02027/0632 SLP091 T00390022
PAIW 170556Z AUTO 03019G25KT 10SM OVC010 04/02 A2980 RMK AO2 PK WND 02027/0502 SLP094 T00390022 10050 20039 56010
PAIW 170456Z AUTO 03021G26KT 10SM OVC010 04/02 A2981 RMK AO2 PK WND 02027/0417 SLP095 T00390017
PAIW 170356Z AUTO 03018G26KT 10SM OVC010 04/02 A2982 RMK AO2 PK WND 02026/0353 SLP100 T00390017